Portada
METAR-TAF:

METAR-TAF

Aeropuertos :

Pontiac Municipal Airport

Pontiac, Illinois, Estados Unidos

latitud: 40-55-25N, longitud: 088-37-31W, altitud: 201 m

Observación

El informe se hizo hace 38 minutos, a las 20:15 UTC
Viento 11 kt del sur-suroeste
Temperatura 32°C
Humedad 38%
Presión 1022 hPa
Visibilidad: 16.1 km
Nubes dispersas a una altura de 6000 ft
Cielo nuboso a una altura de 8500 ft

METAR: KPNT 192015Z AUTO 21011KT 10SM SCT060 BKN085 32/16 A3019 RMK AO2 T03220158

Hora: 15:53 (20:53 UTC)


TAF: falta

Observaciones y pronósticos meteorológicos de más de 4000 aeropuertos (mensajes METAR y TAF).

Los puntos amarillos y rojos representan las estaciones disponibles.

Ponga el ratón en el punto deseado para ver el nombre de la estación.

Haga clic para ver las observaciones y los pronósticos meteorológicos.

Para cambiar el mapa : haga clic en los botones verdes con una cruz de color negro para hacer un zoom, en el botón verde con un guión para alejar o en las flechas verdes para mapas adyacentes.


METAR-TAF: